createdAt,value
2018-11-20T00:00:56.292Z,97.74
2018-11-20T00:02:06.098Z,98.02
2018-11-20T00:03:15.810Z,97.92
2018-11-20T00:04:25.611Z,97.92
2018-11-20T00:05:35.153Z,97.92
2018-11-20T00:06:45.228Z,97.55
2018-11-20T00:07:54.781Z,97.64
2018-11-20T00:09:04.901Z,98.02
2018-11-20T00:10:14.982Z,97.83
2018-11-20T00:11:24.794Z,97.74
2018-11-20T00:12:34.590Z,97.83
2018-11-20T00:13:44.405Z,97.83
2018-11-20T00:14:54.197Z,97.74
2018-11-20T00:16:03.465Z,97.83
2018-11-20T00:17:13.268Z,97.74
2018-11-20T00:18:23.323Z,97.74
2018-11-20T00:19:33.135Z,97.74
2018-11-20T00:20:43.196Z,97.83
2018-11-20T00:21:53.016Z,97.74
2018-11-20T00:23:02.556Z,97.74
2018-11-20T00:24:12.097Z,97.74
2018-11-20T00:25:22.191Z,97.83
2018-11-20T00:26:32.005Z,97.45
2018-11-20T00:27:41.803Z,97.74
2018-11-20T00:28:51.705Z,97.55
2018-11-20T00:30:01.490Z,97.83
2018-11-20T00:31:11.563Z,97.74
2018-11-20T00:32:21.414Z,98.02
2018-11-20T00:33:31.464Z,97.74
2018-11-20T00:34:40.994Z,97.36
2018-11-20T00:35:51.110Z,97.74
2018-11-20T00:37:00.936Z,97.74
2018-11-20T00:38:10.997Z,97.83
2018-11-20T00:39:20.534Z,97.74
2018-11-20T00:40:30.596Z,97.74
2018-11-20T00:41:40.401Z,97.92
2018-11-20T00:42:50.454Z,98.02
2018-11-20T00:44:01.573Z,97.74
2018-11-20T00:45:11.392Z,97.45
2018-11-20T00:46:21.202Z,97.92
2018-11-20T00:47:31.045Z,98.02
2018-11-20T00:48:41.113Z,97.74
2018-11-20T00:49:50.648Z,97.74
2018-11-20T00:50:59.662Z,97.64
2018-11-20T00:52:09.735Z,97.92
2018-11-20T00:53:19.799Z,97.83
2018-11-20T00:54:29.613Z,97.45
2018-11-20T00:55:39.423Z,97.74
2018-11-20T00:56:48.958Z,97.36
2018-11-20T00:57:58.763Z,97.74
2018-11-20T00:59:08.553Z,97.36
2018-11-20T01:00:18.080Z,97.74
2018-11-20T01:01:28.213Z,97.83
2018-11-20T01:02:38.275Z,97.83
2018-11-20T01:03:49.816Z,97.64
2018-11-20T01:04:59.876Z,97.74
2018-11-20T01:06:11.175Z,97.92
2018-11-20T01:07:20.965Z,97.74
2018-11-20T01:08:31.016Z,97.92
2018-11-20T01:09:40.827Z,97.92
2018-11-20T01:10:50.633Z,97.74
2018-11-20T01:12:00.431Z,97.83
2018-11-20T01:13:10.388Z,97.74
2018-11-20T01:14:20.178Z,97.83
2018-11-20T01:15:29.453Z,97.55
2018-11-20T01:16:39.245Z,97.74
2018-11-20T01:17:49.043Z,97.83
2018-11-20T01:18:59.158Z,97.74
2018-11-20T01:20:08.961Z,97.26
2018-11-20T01:21:18.500Z,97.36
2018-11-20T01:22:28.582Z,97.74
2018-11-20T01:23:38.400Z,97.74
2018-11-20T01:24:48.482Z,97.74
2018-11-20T01:25:58.035Z,97.83
2018-11-20T01:27:07.823Z,97.74
2018-11-20T01:28:17.408Z,97.83
2018-11-20T01:29:26.945Z,97.74
2018-11-20T01:30:37.006Z,97.74
2018-11-20T01:31:46.806Z,97.64
2018-11-20T01:32:56.342Z,97.83
2018-11-20T01:34:06.449Z,97.74
2018-11-20T01:35:16.527Z,97.83
2018-11-20T01:36:26.632Z,97.64
2018-11-20T01:37:36.430Z,97.64
2018-11-20T01:38:46.555Z,97.55
2018-11-20T01:39:56.603Z,97.92
2018-11-20T01:41:06.153Z,97.92
2018-11-20T01:42:15.497Z,97.55
2018-11-20T01:43:25.304Z,98.02
2018-11-20T01:44:35.362Z,97.74
2018-11-20T01:45:44.641Z,97.55
2018-11-20T01:46:54.176Z,97.92
2018-11-20T01:48:03.977Z,97.74
2018-11-20T01:49:13.778Z,97.64
2018-11-20T01:50:23.596Z,97.83
2018-11-20T01:51:33.506Z,97.45
2018-11-20T01:52:43.670Z,97.83
2018-11-20T01:53:53.736Z,97.74
2018-11-20T01:55:05.256Z,97.74
2018-11-20T01:56:15.057Z,97.74
2018-11-20T01:57:25.015Z,97.74
2018-11-20T01:58:35.171Z,97.83
2018-11-20T01:59:44.959Z,97.83
2018-11-20T02:00:55.034Z,97.64
2018-11-20T02:02:05.102Z,97.83
2018-11-20T02:03:14.628Z,97.83
2018-11-20T02:04:24.697Z,97.74
2018-11-20T02:05:34.587Z,97.74
2018-11-20T02:06:44.378Z,97.83
2018-11-20T02:07:53.929Z,98.02
2018-11-20T02:09:03.740Z,97.74
2018-11-20T02:10:13.283Z,97.74
2018-11-20T02:11:23.133Z,97.74
2018-11-20T02:12:32.988Z,97.74
2018-11-20T02:13:43.065Z,97.55
2018-11-20T02:14:52.888Z,97.83
2018-11-20T02:16:03.456Z,97.64
2018-11-20T02:17:13.268Z,97.64
2018-11-20T02:18:22.863Z,97.83
2018-11-20T02:19:32.403Z,97.45
2018-11-20T02:20:41.927Z,97.74
2018-11-20T02:21:51.997Z,97.64
2018-11-20T02:23:02.072Z,97.64
2018-11-20T02:24:12.148Z,97.55
2018-11-20T02:25:21.971Z,97.26
2018-11-20T02:26:32.033Z,97.74
2018-11-20T02:27:42.098Z,97.92
2018-11-20T02:28:51.941Z,97.74
2018-11-20T02:30:01.991Z,97.83
2018-11-20T02:31:12.073Z,97.83
2018-11-20T02:32:22.188Z,97.55
2018-11-20T02:33:31.808Z,97.74
2018-11-20T02:34:41.599Z,97.74
2018-11-20T02:35:51.385Z,97.45
2018-11-20T02:37:01.448Z,97.74
2018-11-20T02:38:11.506Z,97.83
2018-11-20T02:39:21.048Z,97.55
2018-11-20T02:40:30.908Z,97.64
2018-11-20T02:41:40.695Z,97.36
2018-11-20T02:42:50.752Z,97.74
2018-11-20T02:44:00.797Z,97.74
2018-11-20T02:45:10.847Z,97.45
2018-11-20T02:46:20.653Z,97.74
2018-11-20T02:47:30.448Z,97.64
2018-11-20T02:48:40.281Z,97.74
2018-11-20T02:49:50.329Z,97.83
2018-11-20T02:51:02.927Z,97.55
2018-11-20T02:52:13.036Z,97.45
2018-11-20T02:53:22.580Z,97.74
2018-11-20T02:54:32.654Z,97.64
2018-11-20T02:55:42.714Z,97.64
2018-11-20T02:56:52.778Z,97.74
2018-11-20T02:58:03.242Z,97.55
2018-11-20T02:59:12.503Z,97.83
2018-11-20T03:00:22.033Z,97.36
2018-11-20T03:01:31.847Z,97.64
2018-11-20T03:02:41.901Z,97.83
2018-11-20T03:34:57.570Z,90.77
2018-11-20T03:36:07.773Z,90.95
2018-11-20T03:37:18.372Z,91.71
2018-11-20T03:38:28.460Z,92.38
2018-11-20T03:39:38.565Z,93.7
2018-11-20T03:40:48.512Z,95.12
2018-11-20T03:41:58.559Z,94.93
2018-11-20T03:43:08.619Z,95.31
2018-11-20T03:44:18.691Z,96.41
2018-11-20T03:45:28.470Z,96.97
2018-11-20T03:46:38.537Z,97.07
2018-11-20T03:47:48.767Z,97.35
2018-11-20T03:48:59.328Z,97.64
2018-11-20T03:50:09.395Z,97.64
2018-11-20T03:51:19.455Z,97.64
2018-11-20T03:52:29.262Z,97.78
2018-11-20T03:53:39.313Z,97.4
2018-11-20T03:54:49.115Z,97.78
2018-11-20T03:55:59.190Z,97.59
2018-11-20T03:57:09.237Z,97.5
2018-11-20T03:58:19.365Z,97.78
2018-11-20T03:59:29.157Z,97.59
2018-11-20T04:00:38.950Z,97.88
2018-11-20T04:01:48.777Z,97.59
2018-11-20T04:02:58.842Z,97.59
2018-11-20T04:04:10.134Z,97.78
2018-11-20T04:05:20.194Z,97.88
2018-11-20T04:06:30.002Z,97.78
2018-11-20T04:07:39.289Z,97.74
2018-11-20T04:08:48.291Z,97.88
2018-11-20T04:09:58.167Z,97.55
2018-11-20T04:11:08.218Z,97.92
2018-11-20T04:12:18.250Z,97.92
2018-11-20T04:13:27.776Z,97.88
2018-11-20T04:14:37.563Z,97.83
2018-11-20T04:15:47.105Z,97.83
2018-11-20T04:16:56.909Z,97.83
2018-11-20T04:18:07.213Z,97.36
2018-11-20T04:19:16.755Z,97.83
2018-11-20T04:20:26.823Z,97.74
2018-11-20T04:21:36.619Z,97.92
2018-11-20T04:22:46.414Z,97.36
2018-11-20T04:23:56.487Z,97.26
2018-11-20T04:25:06.041Z,97.55
2018-11-20T04:26:15.571Z,97.45
2018-11-20T04:27:25.695Z,97.64
2018-11-20T04:28:35.745Z,97.55
2018-11-20T04:29:45.622Z,97.64
2018-11-20T04:30:54.891Z,97.64
2018-11-20T04:32:04.845Z,97.26
2018-11-20T04:33:14.950Z,97.26
2018-11-20T04:34:24.757Z,97.36
2018-11-20T04:35:34.286Z,97.36
2018-11-20T04:36:44.089Z,97.36
2018-11-20T04:37:53.637Z,97.55
2018-11-20T04:39:03.679Z,97.26
2018-11-20T04:40:13.467Z,97.17
2018-11-20T04:41:23.720Z,97.64
2018-11-20T04:42:33.692Z,97.83
2018-11-20T04:43:43.531Z,97.83
2018-11-20T04:44:53.084Z,97.74
2018-11-20T04:46:05.309Z,97.55
2018-11-20T04:47:15.107Z,97.36
2018-11-20T04:48:25.167Z,97.55
2018-11-20T04:49:34.715Z,97.45
2018-11-20T04:50:44.975Z,97.83
2018-11-20T04:51:55.073Z,97.83
2018-11-20T04:53:04.873Z,97.55
2018-11-20T04:54:14.670Z,97.36
2018-11-20T04:55:24.733Z,97.83
2018-11-20T04:56:34.840Z,97.07
2018-11-20T04:57:44.759Z,97.55
2018-11-20T04:58:55.158Z,97.83
2018-11-20T05:00:05.224Z,97.26
2018-11-20T05:01:15.046Z,97.07
2018-11-20T05:02:24.844Z,97.55
2018-11-20T05:03:34.910Z,97.07
2018-11-20T05:04:44.722Z,97.45
2018-11-20T05:05:54.268Z,97.55
2018-11-20T05:07:03.549Z,97.26
2018-11-20T05:08:13.104Z,97.55
2018-11-20T05:09:23.173Z,97.64
2018-11-20T05:10:32.966Z,97.83
2018-11-20T05:11:42.773Z,97.26
2018-11-20T05:12:52.830Z,97.83
2018-11-20T05:14:02.776Z,97.55
2018-11-20T05:15:12.579Z,97.55
2018-11-20T05:16:22.129Z,97.64
2018-11-20T05:17:32.180Z,97.36
2018-11-20T05:18:41.967Z,97.55
2018-11-20T05:19:52.030Z,97.36
2018-11-20T05:21:02.075Z,97.36
2018-11-20T05:22:11.361Z,97.83
2018-11-20T05:23:21.453Z,97.64
2018-11-20T05:24:31.513Z,97.83
2018-11-20T05:25:41.417Z,97.83
2018-11-20T05:26:51.226Z,97.83
2018-11-20T05:28:01.022Z,97.36
2018-11-20T05:29:11.322Z,97.64
2018-11-20T05:30:20.925Z,97.83
2018-11-20T05:31:31.084Z,97.83
2018-11-20T05:32:41.154Z,97.64
2018-11-20T05:33:50.990Z,97.45
2018-11-20T05:35:03.049Z,97.83
2018-11-20T05:36:12.603Z,97.36
2018-11-20T05:37:22.656Z,97.83
2018-11-20T05:38:32.716Z,97.64
2018-11-20T05:39:42.774Z,97.74
2018-11-20T05:40:52.860Z,97.83
2018-11-20T05:42:02.764Z,97.74
2018-11-20T05:43:12.576Z,97.64
2018-11-20T05:44:22.632Z,97.64
2018-11-20T05:45:32.437Z,97.92
2018-11-20T05:46:42.269Z,97.64
2018-11-20T05:47:52.835Z,97.74
2018-11-20T05:49:03.618Z,97.83
2018-11-20T05:50:13.460Z,97.92
2018-11-20T05:51:23.247Z,97.74
2018-11-20T05:52:33.308Z,97.83
2018-11-20T05:53:43.103Z,97.36
2018-11-20T05:54:53.159Z,97.83
2018-11-20T05:56:02.527Z,97.64
2018-11-20T05:57:12.329Z,97.83
2018-11-20T05:58:22.121Z,97.64
2018-11-20T05:59:32.199Z,97.83
2018-11-20T06:00:42.001Z,97.45
2018-11-20T06:01:51.788Z,97.83
2018-11-20T06:03:01.842Z,97.83
2018-11-20T06:04:11.645Z,97.64
2018-11-20T06:05:21.478Z,97.83
2018-11-20T06:06:31.262Z,97.83
2018-11-20T06:07:40.556Z,97.92
2018-11-20T06:08:50.358Z,97.83
2018-11-20T06:09:59.889Z,97.83
2018-11-20T06:11:11.035Z,97.36
2018-11-20T06:12:20.563Z,97.36
2018-11-20T06:13:30.767Z,97.92
2018-11-20T06:14:40.860Z,97.83
2018-11-20T06:15:50.921Z,97.92
2018-11-20T06:17:00.456Z,97.92
2018-11-20T06:18:10.241Z,97.83
2018-11-20T06:19:20.417Z,97.83
2018-11-20T06:20:30.211Z,97.45
2018-11-20T06:21:40.030Z,97.64
2018-11-20T06:22:49.838Z,97.26
2018-11-20T06:23:59.652Z,97.36
2018-11-20T06:25:09.714Z,97.64
2018-11-20T06:26:19.523Z,97.64
2018-11-20T06:27:29.323Z,97.55
2018-11-20T06:28:39.521Z,97.83
2018-11-20T06:29:49.737Z,97.83
2018-11-20T06:30:59.843Z,97.92
2018-11-20T06:32:09.400Z,97.83
2018-11-20T06:33:19.467Z,97.64
2018-11-20T06:34:29.360Z,97.41
2018-11-20T06:35:39.552Z,97.36
2018-11-20T06:36:49.377Z,97.97
2018-11-20T06:37:59.452Z,97.36
2018-11-20T06:39:09.272Z,97.69
2018-11-20T06:40:18.808Z,97.45
2018-11-20T06:41:28.761Z,97.5
2018-11-20T06:42:38.818Z,97.5
2018-11-20T06:43:48.868Z,97.36
2018-11-20T06:44:58.144Z,97.83
2018-11-20T06:46:07.418Z,97.88
2018-11-20T06:47:17.342Z,97.88
2018-11-20T06:48:27.544Z,97.88
2018-11-20T06:49:37.605Z,97.6
2018-11-20T06:50:47.142Z,97.5
2018-11-20T06:51:57.232Z,97.88
2018-11-20T06:53:07.176Z,97.41
2018-11-20T06:54:17.964Z,97.69
2018-11-20T06:55:27.768Z,97.31
2018-11-20T06:56:37.837Z,97.69
2018-11-20T06:57:47.897Z,97.5
2018-11-20T06:58:57.696Z,97.6
2018-11-20T07:00:07.371Z,97.31
2018-11-20T07:01:17.431Z,97.5
2018-11-20T07:02:27.790Z,97.5
2018-11-20T07:03:37.873Z,97.69
2018-11-20T07:04:47.674Z,97.22
2018-11-20T07:05:57.461Z,97.69
2018-11-20T07:07:07.693Z,97.88
2018-11-20T07:08:17.877Z,97.69
2018-11-20T07:09:28.273Z,97.97
2018-11-20T07:10:38.090Z,97.69
2018-11-20T07:11:47.998Z,97.88
2018-11-20T07:12:58.098Z,97.88
2018-11-20T07:14:07.895Z,97.88
2018-11-20T07:15:17.850Z,97.22
2018-11-20T07:16:28.741Z,97.41
2018-11-20T07:17:39.264Z,97.41
2018-11-20T07:18:49.310Z,97.6
2018-11-20T07:19:59.107Z,97.88
2018-11-20T07:21:08.919Z,97.41
2018-11-20T07:22:18.523Z,97.5
2018-11-20T07:23:28.777Z,97.88
2018-11-20T07:24:38.611Z,97.41
2018-11-20T07:25:48.342Z,97.97
2018-11-20T07:26:58.146Z,97.88
2018-11-20T07:28:08.213Z,97.41
2018-11-20T07:29:18.273Z,97.41
2018-11-20T07:30:28.696Z,97.31
2018-11-20T07:31:38.973Z,97.88
2018-11-20T07:32:49.339Z,97.69
2018-11-20T07:33:58.873Z,97.69
2018-11-20T07:35:08.720Z,97.88
2018-11-20T07:36:18.953Z,97.97
2018-11-20T07:37:29.266Z,97.97
2018-11-20T07:38:39.429Z,97.78
2018-11-20T07:39:48.974Z,97.69
2018-11-20T07:40:58.763Z,97.78
2018-11-20T07:42:08.304Z,97.5
2018-11-20T07:43:18.614Z,97.78
2018-11-20T07:44:28.742Z,97.69
2018-11-20T07:45:38.544Z,97.78
2018-11-20T07:46:48.404Z,97.69
2018-11-20T07:47:58.223Z,98.12
2018-11-20T07:49:09.286Z,98.16
2018-11-20T07:50:19.090Z,98.12
2018-11-20T07:51:28.975Z,98.16
2018-11-20T07:52:39.195Z,98.12
2018-11-20T07:53:49.279Z,97.6
2018-11-20T07:54:59.065Z,97.64
2018-11-20T07:56:10.394Z,98.02
2018-11-20T07:57:21.192Z,98.02
2018-11-20T07:58:31.259Z,97.83
2018-11-20T07:59:41.064Z,97.83
2018-11-20T08:00:51.130Z,97.64
2018-11-20T08:02:00.963Z,97.64
2018-11-20T08:03:11.363Z,97.92
2018-11-20T08:04:21.457Z,97.74
2018-11-20T08:05:31.546Z,97.92
2018-11-20T08:06:41.624Z,97.74
2018-11-20T08:07:51.688Z,97.92
2018-11-20T08:09:03.559Z,97.55
2018-11-20T08:10:13.194Z,97.92
2018-11-20T08:11:23.550Z,97.45
2018-11-20T08:12:33.623Z,97.74
2018-11-20T08:13:43.145Z,97.92
2018-11-20T08:14:53.148Z,97.6
2018-11-20T08:16:04.880Z,97.22
2018-11-20T08:17:14.791Z,97.31
2018-11-20T08:18:24.360Z,97.03
2018-11-20T08:19:34.438Z,97.03
2018-11-20T08:20:44.256Z,97.22
2018-11-20T08:21:53.796Z,97.5
2018-11-20T08:23:04.800Z,97.69
2018-11-20T08:24:14.872Z,97.41
2018-11-20T08:25:24.973Z,97.97
2018-11-20T08:26:35.752Z,97.6
2018-11-20T08:27:46.210Z,97.41
2018-11-20T08:28:56.205Z,97.97
2018-11-20T08:30:06.324Z,98.07
2018-11-20T08:31:16.422Z,97.78
2018-11-20T08:32:25.708Z,97.69
2018-11-20T08:33:35.327Z,97.5
2018-11-20T08:34:45.807Z,97.69
2018-11-20T08:35:55.416Z,98.26
2018-11-20T08:37:05.191Z,98.26
2018-11-20T08:38:15.077Z,98.02
2018-11-20T08:39:24.872Z,98.21
2018-11-20T08:40:34.684Z,98.02
2018-11-20T08:41:44.495Z,97.74
2018-11-20T08:42:54.031Z,97.64
2018-11-20T08:44:04.442Z,97.88
2018-11-20T08:45:14.572Z,97.92
2018-11-20T08:46:24.643Z,98.02
2018-11-20T08:47:34.615Z,97.83
2018-11-20T08:48:44.692Z,97.74
2018-11-20T08:49:54.752Z,97.74
2018-11-20T08:51:04.552Z,97.74
2018-11-20T08:52:14.098Z,97.55
2018-11-20T08:53:23.648Z,98.12
2018-11-20T08:54:33.304Z,97.55
2018-11-20T08:55:43.379Z,97.64
2018-11-20T08:56:53.451Z,97.64
2018-11-20T08:58:07.014Z,97.92
2018-11-20T08:59:17.219Z,97.64
2018-11-20T09:00:27.040Z,97.64
2018-11-20T09:01:37.118Z,97.64
2018-11-20T09:02:46.990Z,97.64
2018-11-20T09:03:57.042Z,98.21
2018-11-20T09:05:06.834Z,98.21
2018-11-20T09:06:16.650Z,97.64
2018-11-20T09:07:26.720Z,97.64
2018-11-20T09:08:36.798Z,97.64
2018-11-20T09:09:46.927Z,97.83
2018-11-20T09:10:56.852Z,97.83
2018-11-20T09:12:06.957Z,97.83
2018-11-20T09:13:17.033Z,97.74
2018-11-20T09:14:26.839Z,97.74
2018-11-20T09:15:36.675Z,97.92
2018-11-20T09:16:46.534Z,97.07
2018-11-20T09:17:56.573Z,97.92
2018-11-20T09:19:06.720Z,97.55
2018-11-20T09:20:16.784Z,97.45
2018-11-20T09:21:27.776Z,97.07
2018-11-20T09:22:37.896Z,97.92
2018-11-20T09:23:47.437Z,97.83
2018-11-20T09:24:57.513Z,97.83
2018-11-20T09:26:07.322Z,97.55
2018-11-20T09:27:17.215Z,97.64
2018-11-20T09:28:27.284Z,98.02
2018-11-20T09:29:36.815Z,97.78
2018-11-20T09:30:46.911Z,97.83
2018-11-20T09:31:57.001Z,97.78
2018-11-20T09:33:06.539Z,97.88
2018-11-20T09:34:16.379Z,97.97
2018-11-20T09:35:27.446Z,97.88
2018-11-20T09:36:38.641Z,97.97
2018-11-20T09:37:48.224Z,98.07
2018-11-20T09:38:58.295Z,97.78
2018-11-20T09:40:10.879Z,97.97
2018-11-20T09:41:20.678Z,97.78
2018-11-20T09:42:30.485Z,97.78
2018-11-20T09:43:40.545Z,97.78
2018-11-20T09:44:50.395Z,97.69
2018-11-20T09:46:00.344Z,97.69
2018-11-20T09:47:10.209Z,97.97
2018-11-20T09:48:20.514Z,97.6
2018-11-20T09:49:30.600Z,97.5
2018-11-20T09:50:40.413Z,97.5
2018-11-20T09:51:49.958Z,98.16
2018-11-20T09:52:59.907Z,97.6
2018-11-20T09:54:10.096Z,98.16
2018-11-20T09:55:20.408Z,98.16
2018-11-20T09:56:30.247Z,97.5
2018-11-20T09:57:40.576Z,97.78
2018-11-20T09:58:50.396Z,97.78
2018-11-20T09:59:59.521Z,97.6
2018-11-20T10:01:09.233Z,97.6
2018-11-20T10:02:19.316Z,97.78
2018-11-20T10:03:29.436Z,97.6
2018-11-20T10:04:39.733Z,97.88
2018-11-20T10:05:49.536Z,97.6
2018-11-20T10:06:59.173Z,97.97
2018-11-20T10:08:10.691Z,97.69
2018-11-20T10:09:20.771Z,97.6
2018-11-20T10:10:30.914Z,97.78
2018-11-20T10:11:41.011Z,97.69
2018-11-20T10:12:50.828Z,97.6
2018-11-20T10:14:01.051Z,97.78
2018-11-20T10:15:11.914Z,97.78
2018-11-20T10:16:22.207Z,97.6
2018-11-20T10:17:32.013Z,98.16
2018-11-20T10:18:42.082Z,98.16
2018-11-20T10:19:51.939Z,97.64
2018-11-20T10:21:02.018Z,97.92
2018-11-20T10:22:12.375Z,98.11
2018-11-20T10:23:22.741Z,97.55
2018-11-20T10:24:32.452Z,97.64
2018-11-20T10:25:43.316Z,97.74
2018-11-20T10:26:53.534Z,97.74
2018-11-20T10:28:03.430Z,97.64
2018-11-20T10:29:13.532Z,97.55
2018-11-20T10:30:23.317Z,97.74
2018-11-20T10:31:33.437Z,97.55
2018-11-20T10:32:43.261Z,98.11
2018-11-20T10:33:53.098Z,98.02
2018-11-20T10:35:03.624Z,97.74
2018-11-20T10:36:13.160Z,97.83
2018-11-20T10:37:23.303Z,97.64
2018-11-20T10:38:33.183Z,97.64
2018-11-20T10:39:43.245Z,97.64
2018-11-20T10:40:52.799Z,97.64
2018-11-20T10:42:03.033Z,97.64
2018-11-20T10:43:13.282Z,97.55
2018-11-20T10:44:23.095Z,97.64
2018-11-20T10:45:33.092Z,97.55
2018-11-20T10:46:43.919Z,97.83
2018-11-20T10:47:53.790Z,97.55
2018-11-20T10:49:05.869Z,97.74
2018-11-20T10:50:15.697Z,97.83
2018-11-20T10:51:24.966Z,97.45
2018-11-20T10:52:34.961Z,97.55
2018-11-20T10:53:45.315Z,97.92
2018-11-20T10:54:54.940Z,98.11
2018-11-20T10:56:04.744Z,97.92
2018-11-20T10:57:14.648Z,98.11
2018-11-20T10:58:24.737Z,97.83
2018-11-20T10:59:34.710Z,97.55
2018-11-20T11:00:45.113Z,98.11
2018-11-20T11:01:54.928Z,97.92
2018-11-20T11:03:04.996Z,97.92
2018-11-20T11:04:14.896Z,97.55
2018-11-20T11:05:25.007Z,97.74
2018-11-20T11:06:34.657Z,97.74
2018-11-20T11:07:45.454Z,97.64
2018-11-20T11:08:56.694Z,97.64
2018-11-20T11:10:06.832Z,97.74
2018-11-20T11:11:16.117Z,97.83
2018-11-20T11:12:28.932Z,98.11
2018-11-20T11:13:46.152Z,97.92
2018-11-20T11:15:03.333Z,97.88
2018-11-20T11:16:17.714Z,97.74
2018-11-20T11:17:30.698Z,97.69
2018-11-20T11:18:44.518Z,97.88
2018-11-20T11:19:58.492Z,97.69
2018-11-20T11:21:12.521Z,97.88
2018-11-20T11:22:26.109Z,97.69
2018-11-20T11:23:38.658Z,98.07
2018-11-20T11:24:51.191Z,97.97
2018-11-20T11:26:04.518Z,97.5
2018-11-20T11:27:18.662Z,97.4
2018-11-20T11:28:33.180Z,97.59
2018-11-20T11:29:46.933Z,97.69
2018-11-20T11:30:59.706Z,97.59
2018-11-20T11:32:09.999Z,97.5
2018-11-20T11:33:29.432Z,97.78
2018-11-20T11:34:40.666Z,97.4
2018-11-20T11:35:50.889Z,97.4
2018-11-20T11:37:00.748Z,97.12
2018-11-20T11:38:10.339Z,96.83
2018-11-20T11:39:20.503Z,97.21
2018-11-20T11:40:30.398Z,96.64
2018-11-20T11:41:40.509Z,96.92
2018-11-20T11:42:50.356Z,96.83
2018-11-20T11:44:00.447Z,96.83
2018-11-20T11:45:10.690Z,97.02
2018-11-20T11:46:20.504Z,96.83
2018-11-20T11:47:30.153Z,97.02
2018-11-20T11:48:40.252Z,96.83
2018-11-20T11:49:50.340Z,96.45
2018-11-20T11:51:00.412Z,97.02
2018-11-20T11:52:10.213Z,96.83
2018-11-20T11:53:20.135Z,96.83
2018-11-20T11:54:29.936Z,96.73
2018-11-20T11:55:40.018Z,96.55
2018-11-20T11:56:49.874Z,96.64
2018-11-20T11:57:59.935Z,96.73
2018-11-20T11:59:09.740Z,96.83
2018-11-20T12:00:19.821Z,96.69
2018-11-20T12:03:47.327Z,96.78
2018-11-20T12:04:57.413Z,97.21
2018-11-20T12:06:07.484Z,97.07
2018-11-20T12:07:17.019Z,96.73
2018-11-20T12:08:26.720Z,96.73
2018-11-20T12:09:36.825Z,96.83
2018-11-20T12:10:46.395Z,96.83
2018-11-20T12:11:55.691Z,96.17
2018-11-20T12:13:05.805Z,96.64
2018-11-20T12:14:15.341Z,96.45
2018-11-20T12:15:25.781Z,96.45
2018-11-20T12:16:36.113Z,96.64
2018-11-20T12:17:46.188Z,96.64
2018-11-20T12:18:58.509Z,96.55
2018-11-20T12:20:08.445Z,96.64
2018-11-20T12:21:18.312Z,96.64
2018-11-20T12:22:28.142Z,96.64
2018-11-20T12:23:37.942Z,96.55
2018-11-20T12:24:49.652Z,96.64
2018-11-20T12:25:59.515Z,96.55
2018-11-20T12:27:09.923Z,96.73
2018-11-20T12:28:19.505Z,96.64
2018-11-20T12:29:30.324Z,96.73
2018-11-20T12:30:46.184Z,96.64
2018-11-20T12:31:56.609Z,96.64
2018-11-20T12:33:06.722Z,96.83
2018-11-20T12:34:18.913Z,96.64
2018-11-20T12:35:36.116Z,96.64
2018-11-20T12:36:46.025Z,96.55
2018-11-20T12:37:56.666Z,96.64
2018-11-20T12:39:08.809Z,96.08
2018-11-20T12:40:19.293Z,96.36
2018-11-20T12:41:31.150Z,96.64
2018-11-20T12:42:44.008Z,96.36
2018-11-20T12:43:54.793Z,96.83
2018-11-20T12:45:11.009Z,96.64
2018-11-20T12:46:23.286Z,96.64
2018-11-20T12:47:35.207Z,96.55
2018-11-20T12:48:48.076Z,96.64
2018-11-20T12:50:01.004Z,96.83
2018-11-20T12:51:13.200Z,96.45
2018-11-20T12:52:26.405Z,96.83
2018-11-20T12:53:38.297Z,97.02
2018-11-20T12:54:52.431Z,97.02
2018-11-20T12:56:02.540Z,96.83
2018-11-20T12:57:13.927Z,96.73
2018-11-20T12:58:24.067Z,96.64
2018-11-20T12:59:34.234Z,96.92
2018-11-20T13:00:44.745Z,96.83
2018-11-20T13:01:55.061Z,96.83
2018-11-20T13:03:05.129Z,96.92
2018-11-20T13:04:14.945Z,96.83
2018-11-20T13:05:24.500Z,96.83
2018-11-20T13:06:35.836Z,96.83
2018-11-20T13:07:45.835Z,96.36
2018-11-20T13:08:55.968Z,96.83
2018-11-20T13:10:08.304Z,96.92
2018-11-20T13:11:17.875Z,96.83
2018-11-20T13:12:27.812Z,96.55
2018-11-20T13:13:39.183Z,96.73
2018-11-20T13:14:52.929Z,97.02
2018-11-20T13:16:04.292Z,96.92
2018-11-20T13:17:13.731Z,96.92
2018-11-20T13:18:23.831Z,96.45
2018-11-20T13:19:35.792Z,96.73
2018-11-20T13:20:45.354Z,96.83
2018-11-20T13:21:59.456Z,96.92
2018-11-20T13:23:09.900Z,96.83
2018-11-20T13:24:19.929Z,96.83
2018-11-20T13:25:29.988Z,97.12
2018-11-20T13:26:40.102Z,97.02
2018-11-20T13:27:50.189Z,97.02
2018-11-20T13:29:02.727Z,97.21
2018-11-20T13:30:12.756Z,97.31
2018-11-20T13:31:23.042Z,97.02
2018-11-20T13:32:33.442Z,97.4
2018-11-20T13:33:43.917Z,96.92
2018-11-20T13:34:59.515Z,97.21
2018-11-20T13:36:07.672Z,97.02
2018-11-20T13:37:18.170Z,97.12
2018-11-20T13:38:29.268Z,97.02
2018-11-20T13:39:42.822Z,97.02
2018-11-20T13:40:54.846Z,97.4
2018-11-20T13:42:04.922Z,97.21
2018-11-20T13:43:14.999Z,97.12
2018-11-20T13:44:24.820Z,96.83
2018-11-20T13:45:34.970Z,97.02
2018-11-20T13:46:46.724Z,97.21
2018-11-20T13:47:56.782Z,97.31
2018-11-20T13:49:06.893Z,96.92
2018-11-20T13:50:17.066Z,97.12
2018-11-20T13:51:26.982Z,96.83
2018-11-20T13:52:37.206Z,97.12
2018-11-20T13:53:47.267Z,96.92
2018-11-20T13:54:57.222Z,97.21
2018-11-20T13:56:07.344Z,97.02
2018-11-20T13:57:16.634Z,97.02
2018-11-20T13:58:26.460Z,97.4
2018-11-20T13:59:36.529Z,97.5
2018-11-20T14:00:46.140Z,97.78
2018-11-20T14:01:56.332Z,97.59
2018-11-20T14:03:06.401Z,97.59
2018-11-20T14:04:16.222Z,97.5
2018-11-20T14:05:26.280Z,97.69
2018-11-20T14:06:36.434Z,97.69
2018-11-20T14:07:46.265Z,97.97
2018-11-20T14:08:56.614Z,97.5
2018-11-20T14:10:08.212Z,97.5
2018-11-20T14:11:18.045Z,97.97
2018-11-20T14:12:28.110Z,97.4
2018-11-20T14:13:37.760Z,97.5
2018-11-20T14:14:47.862Z,97.4
2018-11-20T14:15:57.670Z,97.78
2018-11-20T14:17:07.499Z,97.59
2018-11-20T14:18:17.591Z,97.31
2018-11-20T14:19:26.879Z,97.78
2018-11-20T14:20:36.682Z,97.78
2018-11-20T14:21:46.226Z,97.69
2018-11-20T14:22:56.031Z,97.5
2018-11-20T14:24:05.603Z,97.5
2018-11-20T14:25:15.443Z,97.69
2018-11-20T14:26:25.511Z,97.78
2018-11-20T14:27:35.390Z,97.4
2018-11-20T14:28:45.488Z,97.69
2018-11-20T14:29:55.585Z,97.5
2018-11-20T14:31:05.437Z,97.5
2018-11-20T14:32:15.506Z,97.59
2018-11-20T14:33:25.580Z,97.5
2018-11-20T14:34:35.685Z,97.5
2018-11-20T14:35:45.809Z,97.5
2018-11-20T14:36:55.352Z,97.5
2018-11-20T14:38:05.426Z,97.5
2018-11-20T14:47:41.775Z,97.59
2018-11-20T14:48:51.645Z,97.5
2018-11-20T14:50:04.140Z,97.5
2018-11-20T14:51:14.211Z,97.5
2018-11-20T14:52:23.512Z,97.97
2018-11-20T14:53:33.057Z,97.88
2018-11-20T14:54:42.865Z,98.07
2018-11-20T14:55:52.943Z,97.5
2018-11-20T14:57:03.856Z,98.07
2018-11-20T14:58:13.931Z,98.07
2018-11-20T14:59:23.803Z,97.59
2018-11-20T15:00:33.903Z,98.07
2018-11-20T15:01:43.970Z,97.88
2018-11-20T15:02:53.513Z,97.59
2018-11-20T15:04:03.319Z,97.59
2018-11-20T15:05:13.176Z,97.69
2018-11-20T15:06:22.795Z,97.78
2018-11-20T15:07:32.341Z,97.69
2018-11-20T15:08:42.427Z,97.88
2018-11-20T15:09:52.340Z,96.73
2018-11-20T15:11:02.395Z,97.59
2018-11-20T15:12:12.467Z,98.07
2018-11-20T15:13:22.290Z,97.5
2018-11-20T15:14:32.342Z,98.07
2018-11-20T15:15:42.404Z,97.69
2018-11-20T15:16:52.220Z,97.88
2018-11-20T15:18:02.291Z,97.69
2018-11-20T15:19:12.360Z,97.88
2018-11-20T15:20:22.168Z,97.69
2018-11-20T15:21:31.980Z,97.88
2018-11-20T15:22:41.847Z,97.69
2018-11-20T15:23:51.651Z,97.69
2018-11-20T15:25:02.084Z,97.88
2018-11-20T15:26:11.881Z,97.88
2018-11-20T15:27:21.985Z,97.69
2018-11-20T15:28:32.140Z,97.78
2018-11-20T15:29:41.939Z,97.88
2018-11-20T15:30:51.754Z,97.88
2018-11-20T15:32:01.298Z,97.88
2018-11-20T15:33:11.109Z,97.59
2018-11-20T15:34:20.247Z,97.59
2018-11-20T15:35:30.055Z,97.88
2018-11-20T15:36:39.605Z,97.78
2018-11-20T15:37:49.691Z,97.69
2018-11-20T15:38:59.238Z,97.88
2018-11-20T15:40:08.672Z,97.69
2018-11-20T15:41:18.292Z,97.97
2018-11-20T15:42:27.861Z,97.78
2018-11-20T15:43:37.687Z,97.31
2018-11-20T15:44:47.268Z,97.88
2018-11-20T15:45:57.352Z,97.78
2018-11-20T15:47:07.465Z,97.69
2018-11-20T15:48:17.276Z,97.69